createdAt,value
2023-10-13T00:02:10.221Z,11.97
2023-10-13T00:04:38.794Z,4.03
2023-10-13T00:07:10.879Z,15.80
2023-10-13T00:09:39.824Z,7.20
2023-10-13T00:12:11.644Z,7.40
2023-10-13T00:14:40.726Z,4.97
2023-10-13T00:17:09.690Z,5.27
2023-10-13T00:19:39.769Z,5.43
2023-10-13T00:22:11.259Z,4.53
2023-10-13T00:24:44.384Z,5.13
2023-10-13T00:27:31.765Z,7.70
2023-10-13T00:30:17.225Z,6.33
2023-10-13T00:32:57.320Z,9.07
2023-10-13T00:35:37.186Z,11.50
2023-10-13T00:38:14.166Z,14.67
2023-10-13T00:40:54.282Z,10.70
2023-10-13T00:43:24.134Z,8.40
2023-10-13T00:46:09.650Z,10.93
2023-10-13T00:49:05.764Z,9.00
2023-10-13T00:51:36.434Z,9.40
2023-10-13T00:54:15.053Z,9.00
2023-10-13T00:57:10.264Z,10.87
2023-10-13T00:59:39.563Z,5.70
2023-10-13T01:02:26.337Z,5.60
2023-10-13T01:04:56.127Z,6.73
2023-10-13T01:07:25.996Z,11.03
2023-10-13T01:09:53.693Z,8.30
2023-10-13T01:12:23.802Z,7.20
2023-10-13T01:14:52.277Z,7.83
2023-10-13T01:17:20.439Z,4.93
2023-10-13T01:19:50.717Z,7.27
2023-10-13T01:22:19.013Z,5.33
2023-10-13T01:24:47.241Z,7.73
2023-10-13T01:27:26.833Z,7.63
2023-10-13T01:30:00.494Z,5.03
2023-10-13T01:32:30.882Z,7.77
2023-10-13T01:35:28.994Z,6.27
2023-10-13T01:37:56.625Z,6.30
2023-10-13T01:40:35.269Z,5.50
2023-10-13T01:43:05.993Z,6.90
2023-10-13T01:45:33.981Z,7.17
2023-10-13T01:48:03.037Z,6.33
2023-10-13T01:50:31.712Z,7.10
2023-10-13T01:53:15.404Z,7.37
2023-10-13T01:55:46.218Z,7.00
2023-10-13T01:58:19.696Z,8.30
2023-10-13T02:00:49.409Z,5.63
2023-10-13T02:03:18.813Z,6.00
2023-10-13T02:05:55.846Z,8.83
2023-10-13T02:08:27.665Z,12.27
2023-10-13T02:10:59.037Z,8.63
2023-10-13T02:13:27.929Z,8.63
2023-10-13T02:16:05.308Z,9.50
2023-10-13T02:18:42.979Z,9.90
2023-10-13T02:21:14.619Z,7.47
2023-10-13T02:23:47.130Z,7.93
2023-10-13T02:26:32.074Z,10.23
2023-10-13T02:29:06.140Z,7.00
2023-10-13T02:31:37.418Z,9.00
2023-10-13T02:34:09.542Z,6.93
2023-10-13T02:36:38.194Z,11.93
2023-10-13T02:39:09.977Z,8.63
2023-10-13T02:41:41.439Z,7.97
2023-10-13T02:44:21.192Z,7.57
2023-10-13T02:46:51.959Z,8.03
2023-10-13T02:49:47.792Z,7.63
2023-10-13T02:52:49.577Z,5.10
2023-10-13T02:55:26.844Z,8.97
2023-10-13T02:57:57.664Z,6.80
2023-10-13T03:00:32.786Z,4.37
2023-10-13T03:03:00.832Z,7.93
2023-10-13T03:05:31.414Z,7.33
2023-10-13T03:08:00.288Z,8.00
2023-10-13T03:10:31.217Z,8.80
2023-10-13T03:12:59.770Z,8.23
2023-10-13T03:15:49.386Z,10.27
2023-10-13T03:18:20.257Z,5.70
2023-10-13T03:20:53.078Z,8.57
2023-10-13T03:23:21.275Z,5.70
2023-10-13T03:25:56.968Z,7.30
2023-10-13T03:28:30.559Z,7.37
2023-10-13T03:31:03.028Z,8.07
2023-10-13T03:33:34.494Z,8.80
2023-10-13T03:36:07.446Z,9.87
2023-10-13T03:38:38.182Z,9.27
2023-10-13T03:41:13.479Z,6.70
2023-10-13T03:43:54.212Z,9.27
2023-10-13T03:46:23.761Z,6.80
2023-10-13T03:49:03.363Z,8.63
2023-10-13T03:51:35.249Z,8.53
2023-10-13T03:54:09.348Z,7.57
2023-10-13T03:56:41.389Z,6.97
2023-10-13T03:59:11.584Z,7.67
2023-10-13T04:01:47.462Z,10.50
2023-10-13T04:04:37.516Z,10.27
2023-10-13T04:07:09.158Z,6.47
2023-10-13T04:09:38.341Z,7.30
2023-10-13T04:12:15.335Z,11.73
2023-10-13T04:15:05.258Z,7.90
2023-10-13T04:17:42.313Z,5.53
2023-10-13T04:20:12.201Z,9.50
2023-10-13T04:22:48.586Z,10.33
2023-10-13T04:25:45.049Z,8.97
2023-10-13T04:28:16.527Z,10.27
2023-10-13T04:30:59.362Z,9.53
2023-10-13T04:33:46.317Z,16.00
2023-10-13T04:36:18.103Z,12.40
2023-10-13T04:39:01.942Z,8.00
2023-10-13T04:41:46.705Z,8.30
2023-10-13T04:44:32.102Z,7.83
2023-10-13T04:47:01.611Z,8.07
2023-10-13T04:49:51.505Z,7.77
2023-10-13T04:52:39.007Z,9.40
2023-10-13T04:55:40.116Z,10.80
2023-10-13T04:58:37.168Z,7.80
2023-10-13T05:01:24.235Z,8.97
2023-10-13T05:03:55.650Z,8.10
2023-10-13T05:06:44.259Z,7.93
2023-10-13T05:09:31.855Z,12.17
2023-10-13T05:12:18.478Z,7.53
2023-10-13T05:15:04.984Z,9.70
2023-10-13T05:17:51.751Z,8.50
2023-10-13T05:20:37.741Z,9.10
2023-10-13T05:23:23.964Z,13.07
2023-10-13T05:26:10.432Z,8.27
2023-10-13T05:28:57.283Z,9.93
2023-10-13T05:31:44.429Z,7.97
2023-10-13T05:34:30.958Z,9.50
2023-10-13T05:37:18.467Z,10.87
2023-10-13T05:40:04.917Z,9.80
2023-10-13T05:42:51.894Z,16.93
2023-10-13T05:45:20.098Z,11.80
2023-10-13T05:47:49.116Z,11.83
2023-10-13T05:50:23.313Z,13.33
2023-10-13T05:52:58.332Z,11.53
2023-10-13T05:55:45.985Z,13.27
2023-10-13T05:58:33.534Z,7.63
2023-10-13T06:01:20.660Z,8.87
2023-10-13T06:04:07.526Z,10.00
2023-10-13T06:06:56.943Z,9.37
2023-10-13T06:09:44.846Z,10.23
2023-10-13T06:12:31.006Z,7.50
2023-10-13T06:15:17.912Z,8.27
2023-10-13T06:18:04.734Z,5.13
2023-10-13T06:20:52.397Z,8.90
2023-10-13T06:23:39.247Z,9.67
2023-10-13T06:26:25.842Z,11.77
2023-10-13T06:28:54.199Z,8.00
2023-10-13T06:31:27.582Z,11.80
2023-10-13T06:33:57.332Z,11.73
2023-10-13T06:36:25.549Z,13.47
2023-10-13T06:38:57.149Z,13.57
2023-10-13T06:41:42.971Z,8.33
2023-10-13T06:44:16.910Z,10.90
2023-10-13T06:46:45.727Z,6.97
2023-10-13T06:49:15.620Z,20.37
2023-10-13T06:51:43.779Z,12.90
2023-10-13T06:54:21.685Z,16.03
2023-10-13T06:56:54.237Z,18.17
2023-10-13T06:59:28.314Z,20.47
2023-10-13T07:02:09.259Z,26.33
2023-10-13T07:05:13.299Z,9.03
2023-10-13T07:07:42.450Z,12.47
2023-10-13T07:10:13.199Z,15.67
2023-10-13T07:12:44.710Z,10.27
2023-10-13T07:15:20.957Z,13.80
2023-10-13T07:17:49.581Z,19.50
2023-10-13T07:20:26.582Z,11.70
2023-10-13T07:23:07.702Z,9.43
2023-10-13T07:25:39.025Z,14.37
2023-10-13T07:28:11.835Z,9.80
2023-10-13T07:31:05.083Z,9.43
2023-10-13T07:33:33.802Z,8.67
2023-10-13T07:36:02.912Z,8.97
2023-10-13T07:38:39.357Z,102.13
2023-10-13T07:41:10.199Z,27.87
2023-10-13T07:43:41.193Z,17.27
2023-10-13T07:46:11.135Z,11.23
2023-10-13T07:48:39.676Z,9.77
2023-10-13T07:51:15.201Z,15.47
2023-10-13T07:53:50.254Z,12.83
2023-10-13T07:56:20.614Z,30.27
2023-10-13T07:58:54.616Z,13.90
2023-10-13T08:01:23.159Z,14.50
2023-10-13T08:04:06.281Z,15.53
2023-10-13T08:06:35.812Z,16.23
2023-10-13T08:09:10.691Z,14.07
2023-10-13T08:11:38.945Z,15.73
2023-10-13T08:16:56.810Z,18.67
2023-10-13T08:19:33.773Z,14.77
2023-10-13T08:22:25.149Z,14.73
2023-10-13T08:24:54.320Z,23.70
2023-10-13T08:27:41.304Z,17.70
2023-10-13T08:30:30.204Z,13.73
2023-10-13T08:33:00.724Z,15.33
2023-10-13T08:35:35.804Z,18.77
2023-10-13T08:38:26.957Z,20.63
2023-10-13T08:41:01.532Z,19.03
2023-10-13T08:43:45.331Z,21.57
2023-10-13T08:46:36.238Z,14.80
2023-10-13T08:49:19.986Z,17.30
2023-10-13T08:51:52.849Z,20.93
2023-10-13T08:54:36.099Z,12.70
2023-10-13T08:57:22.973Z,24.73
2023-10-13T09:00:16.960Z,16.00
2023-10-13T09:03:03.775Z,19.00
2023-10-13T09:05:43.485Z,15.17
2023-10-13T09:08:17.549Z,25.37
2023-10-13T09:11:07.251Z,17.67
2023-10-13T09:13:47.505Z,20.20
2023-10-13T09:16:39.333Z,52.63
2023-10-13T09:19:07.404Z,17.23
2023-10-13T09:21:42.596Z,16.47
2023-10-13T09:24:24.501Z,13.93
2023-10-13T09:26:57.832Z,13.17
2023-10-13T09:29:26.422Z,14.03
2023-10-13T09:32:04.205Z,13.00
2023-10-13T09:34:42.129Z,59.07
2023-10-13T09:37:15.581Z,15.70
2023-10-13T09:39:54.054Z,12.30
2023-10-13T09:42:25.251Z,12.80
2023-10-13T09:44:57.074Z,11.27
2023-10-13T09:47:32.523Z,12.13
2023-10-13T09:50:16.847Z,11.90
2023-10-13T09:52:47.331Z,18.77
2023-10-13T09:55:21.565Z,13.83
2023-10-13T09:58:11.100Z,12.00
2023-10-13T10:00:49.957Z,7.30
2023-10-13T10:03:36.244Z,9.83
2023-10-13T10:06:05.121Z,8.17
2023-10-13T10:08:35.318Z,12.87
2023-10-13T10:11:29.366Z,16.13
2023-10-13T10:14:15.737Z,9.33
2023-10-13T10:17:09.768Z,13.70
2023-10-13T10:19:58.500Z,13.63
2023-10-13T10:22:39.937Z,9.50
2023-10-13T10:25:09.153Z,9.43
2023-10-13T10:27:37.320Z,17.97
2023-10-13T10:30:05.939Z,12.97
2023-10-13T10:32:38.331Z,10.60
2023-10-13T10:35:16.647Z,11.50
2023-10-13T10:37:48.505Z,24.43
2023-10-13T10:40:48.347Z,12.67
2023-10-13T10:43:32.444Z,14.60
2023-10-13T10:46:02.018Z,12.93
2023-10-13T10:48:35.690Z,11.70
2023-10-13T10:51:16.023Z,13.07
2023-10-13T10:53:47.992Z,18.83
2023-10-13T10:56:42.988Z,14.13
2023-10-13T10:59:20.335Z,13.37
2023-10-13T11:01:49.121Z,19.07
2023-10-13T11:04:21.044Z,11.97
2023-10-13T11:06:56.358Z,14.27
2023-10-13T11:09:47.538Z,12.93
2023-10-13T11:12:16.792Z,16.23
2023-10-13T11:14:48.588Z,24.97
2023-10-13T11:17:28.218Z,14.87
2023-10-13T11:19:57.413Z,12.30
2023-10-13T11:22:33.998Z,10.90
2023-10-13T11:25:14.450Z,13.97
2023-10-13T11:27:52.472Z,18.07
2023-10-13T11:30:22.150Z,18.47
2023-10-13T11:33:07.611Z,19.20
2023-10-13T11:35:55.974Z,18.73
2023-10-13T11:38:29.115Z,18.47
2023-10-13T11:41:06.332Z,16.63
2023-10-13T11:43:57.780Z,13.27
2023-10-13T11:46:39.747Z,15.17
2023-10-13T11:49:14.705Z,12.30
2023-10-13T11:51:46.867Z,18.73
2023-10-13T11:54:16.803Z,41.93
2023-10-13T11:56:48.154Z,25.20
2023-10-13T11:59:19.862Z,33.13
2023-10-13T12:02:10.655Z,13.37
2023-10-13T12:04:45.408Z,13.37
2023-10-13T12:07:19.414Z,13.00
2023-10-13T12:09:58.103Z,13.27
2023-10-13T12:12:28.080Z,15.47
2023-10-13T12:14:57.434Z,13.50
2023-10-13T12:17:29.651Z,16.60
2023-10-13T12:19:58.723Z,12.50
2023-10-13T12:22:30.152Z,22.80
2023-10-13T12:24:58.433Z,21.10
2023-10-13T12:27:36.495Z,15.30
2023-10-13T12:30:09.683Z,14.37
2023-10-13T12:32:38.333Z,13.50
2023-10-13T12:35:06.838Z,16.60
2023-10-13T12:37:37.851Z,13.60
2023-10-13T12:40:36.256Z,14.67
2023-10-13T12:43:26.806Z,12.90
2023-10-13T12:46:17.521Z,13.33
2023-10-13T12:49:00.538Z,15.30
2023-10-13T12:51:34.570Z,18.53
2023-10-13T12:54:07.172Z,15.70
2023-10-13T12:56:36.033Z,24.00
2023-10-13T12:59:12.986Z,16.20
2023-10-13T13:01:45.051Z,18.40
2023-10-13T13:04:20.141Z,13.37
2023-10-13T13:06:49.823Z,13.63
2023-10-13T13:09:27.423Z,16.80
2023-10-13T13:12:00.048Z,16.37
2023-10-13T13:14:30.987Z,14.23
2023-10-13T13:17:06.390Z,19.77
2023-10-13T13:19:43.254Z,13.93
2023-10-13T13:22:14.596Z,119.17
2023-10-13T13:24:46.334Z,28.47
2023-10-13T13:27:21.287Z,16.77
2023-10-13T13:29:49.437Z,18.80
2023-10-13T13:32:26.592Z,15.97
2023-10-13T13:35:07.661Z,13.20
2023-10-13T13:37:36.403Z,25.60
2023-10-13T13:40:23.796Z,38.33
2023-10-13T13:42:51.976Z,32.63
2023-10-13T13:45:28.867Z,25.63
2023-10-13T13:47:57.389Z,28.63
2023-10-13T13:50:31.009Z,32.73
2023-10-13T13:52:59.569Z,32.33
2023-10-13T13:55:32.848Z,28.97
2023-10-13T13:58:01.018Z,34.43
2023-10-13T14:00:49.950Z,35.20
2023-10-13T14:03:38.234Z,36.60
2023-10-13T14:06:07.937Z,40.00
2023-10-13T14:08:36.250Z,43.93
2023-10-13T14:11:14.423Z,45.17
2023-10-13T14:13:52.602Z,44.73
2023-10-13T14:16:25.896Z,44.70
2023-10-13T14:18:54.892Z,46.43
2023-10-13T14:21:25.967Z,57.87
2023-10-13T14:23:57.443Z,52.13
2023-10-13T14:26:27.194Z,46.60
2023-10-13T14:29:09.716Z,47.10
2023-10-13T14:31:43.837Z,44.03
2023-10-13T14:34:12.567Z,43.73
2023-10-13T14:36:40.560Z,57.03
2023-10-13T14:39:12.242Z,45.50
2023-10-13T14:41:41.388Z,47.43
2023-10-13T14:44:10.671Z,43.97
2023-10-13T14:46:40.879Z,37.87
2023-10-13T14:49:09.745Z,43.67
2023-10-13T14:51:41.494Z,51.90
2023-10-13T14:54:10.048Z,41.33
2023-10-13T14:56:38.141Z,43.40
2023-10-13T14:59:06.598Z,51.70
2023-10-13T15:01:37.024Z,43.03
2023-10-13T15:04:06.520Z,44.80
2023-10-13T15:06:34.859Z,40.27
2023-10-13T15:09:05.416Z,40.90
2023-10-13T15:11:47.161Z,47.20
2023-10-13T15:14:17.777Z,40.43
2023-10-13T15:16:46.072Z,39.00
2023-10-13T15:19:14.744Z,47.17
2023-10-13T15:21:43.755Z,42.57
2023-10-13T15:24:24.681Z,46.10
2023-10-13T15:26:58.717Z,49.03
2023-10-13T15:29:28.010Z,37.53
2023-10-13T15:32:02.674Z,44.10
2023-10-13T15:34:32.683Z,39.30
2023-10-13T15:37:06.529Z,32.30
2023-10-13T15:39:34.704Z,36.47
2023-10-13T15:42:03.954Z,41.60
2023-10-13T15:44:36.180Z,40.43
2023-10-13T15:48:14.151Z,39.43
2023-10-13T15:49:54.918Z,37.93
2023-10-13T15:52:23.487Z,40.73
2023-10-13T15:54:51.833Z,38.73
2023-10-13T15:57:20.104Z,34.17
2023-10-13T15:59:48.564Z,30.37
2023-10-13T16:02:21.224Z,36.77
2023-10-13T16:04:49.745Z,38.13
2023-10-13T16:07:19.503Z,32.70
2023-10-13T16:09:47.548Z,35.90
2023-10-13T16:12:16.869Z,32.77
2023-10-13T16:14:45.231Z,30.70
2023-10-13T16:17:16.101Z,44.63
2023-10-13T16:19:45.002Z,37.37
2023-10-13T16:22:12.794Z,42.37
2023-10-13T16:24:41.083Z,44.13
2023-10-13T16:27:08.998Z,52.23
2023-10-13T16:29:37.113Z,39.90
2023-10-13T16:32:05.682Z,40.37
2023-10-13T16:34:34.252Z,45.57
2023-10-13T16:37:06.434Z,42.77
2023-10-13T16:39:34.758Z,45.47
2023-10-13T16:42:02.622Z,51.33
2023-10-13T16:44:31.778Z,51.20
2023-10-13T16:47:02.573Z,53.60
2023-10-13T16:49:31.906Z,62.13
2023-10-13T16:52:02.059Z,76.07
2023-10-13T16:54:30.522Z,74.10
2023-10-13T16:57:17.807Z,96.97
2023-10-13T16:59:48.976Z,84.67
2023-10-13T17:02:16.977Z,74.37
2023-10-13T17:04:45.463Z,68.00
2023-10-13T17:07:15.797Z,69.90
2023-10-13T17:09:46.888Z,75.30
2023-10-13T17:12:15.501Z,70.87
2023-10-13T17:14:45.367Z,69.97
2023-10-13T17:17:13.061Z,67.80
2023-10-13T17:19:51.318Z,78.53
2023-10-13T17:22:21.125Z,93.90
2023-10-13T17:24:50.093Z,105.60
2023-10-13T17:27:18.612Z,101.63
2023-10-13T17:29:47.225Z,78.73
2023-10-13T17:32:18.328Z,137.70
2023-10-13T17:34:46.384Z,83.70
2023-10-13T17:37:14.352Z,86.63
2023-10-13T17:39:42.590Z,83.17
2023-10-13T17:42:14.508Z,93.40
2023-10-13T17:44:43.066Z,73.50
2023-10-13T17:47:18.407Z,82.40
2023-10-13T17:49:47.054Z,83.50
2023-10-13T17:52:15.521Z,79.17
2023-10-13T17:54:44.006Z,96.07
2023-10-13T17:57:12.337Z,87.43
2023-10-13T17:59:40.526Z,80.47
2023-10-13T18:02:09.124Z,80.73
2023-10-13T18:04:37.567Z,103.60
2023-10-13T18:07:06.635Z,87.70
2023-10-13T18:09:34.995Z,93.20
2023-10-13T18:12:05.763Z,84.80
2023-10-13T18:14:34.063Z,100.33
2023-10-13T18:17:05.325Z,80.73
2023-10-13T18:19:35.402Z,80.70
2023-10-13T18:22:05.074Z,113.97
2023-10-13T18:24:33.296Z,91.83
2023-10-13T18:27:01.853Z,95.90
2023-10-13T18:29:30.542Z,114.60
2023-10-13T18:32:00.604Z,99.00
2023-10-13T18:34:29.600Z,94.13
2023-10-13T18:37:01.347Z,86.67
2023-10-13T18:39:35.531Z,79.03
2023-10-13T18:42:07.230Z,97.70
2023-10-13T18:44:35.436Z,138.43
2023-10-13T18:47:03.419Z,146.70
2023-10-13T18:49:31.881Z,154.63
2023-10-13T18:51:59.869Z,90.47
2023-10-13T18:54:27.975Z,113.57
2023-10-13T18:56:56.528Z,121.60
2023-10-13T18:59:24.862Z,115.27
2023-10-13T19:01:53.962Z,107.03
2023-10-13T19:04:22.537Z,106.30
2023-10-13T19:06:50.538Z,126.10
2023-10-13T19:09:26.947Z,136.30
2023-10-13T19:11:57.416Z,89.83
2023-10-13T19:14:25.860Z,95.33
2023-10-13T19:16:58.923Z,89.47
2023-10-13T19:19:28.164Z,94.30
2023-10-13T19:21:59.223Z,68.87
2023-10-13T19:24:32.938Z,77.57
2023-10-13T19:27:01.566Z,64.67
2023-10-13T19:29:30.797Z,75.10
2023-10-13T19:32:01.711Z,68.00
2023-10-13T19:34:30.183Z,71.57
2023-10-13T19:37:04.989Z,82.00
2023-10-13T19:39:42.273Z,71.47
2023-10-13T19:42:10.768Z,71.80
2023-10-13T19:44:39.485Z,71.90
2023-10-13T19:47:07.912Z,79.27
2023-10-13T19:49:39.287Z,84.67
2023-10-13T19:52:08.340Z,85.70
2023-10-13T19:54:40.374Z,88.60
2023-10-13T19:57:12.652Z,100.23
2023-10-13T19:59:42.588Z,93.47
2023-10-13T20:02:11.221Z,90.97
2023-10-13T20:04:40.349Z,104.10
2023-10-13T20:07:09.125Z,107.80
2023-10-13T20:09:37.259Z,107.03
2023-10-13T20:12:05.524Z,107.77
2023-10-13T20:14:33.907Z,91.40
2023-10-13T20:17:02.257Z,100.43
2023-10-13T20:19:30.720Z,83.40
2023-10-13T20:22:05.962Z,88.23
2023-10-13T20:24:34.186Z,94.33
2023-10-13T20:27:02.986Z,73.87
2023-10-13T20:29:31.137Z,64.57
2023-10-13T20:32:01.302Z,66.10
2023-10-13T20:34:31.906Z,73.30
2023-10-13T20:37:00.357Z,73.83
2023-10-13T20:39:38.084Z,79.73
2023-10-13T20:42:06.359Z,68.73
2023-10-13T20:44:41.613Z,66.27
2023-10-13T20:47:14.630Z,67.00
2023-10-13T20:49:44.968Z,70.23
2023-10-13T20:54:57.556Z,74.57
2023-10-13T20:57:28.216Z,79.77
2023-10-13T20:59:57.760Z,87.13
2023-10-13T21:02:25.944Z,59.20
2023-10-13T21:04:54.240Z,71.57
2023-10-13T21:07:22.990Z,74.80
2023-10-13T21:09:51.576Z,79.40
2023-10-13T21:12:19.443Z,78.17
2023-10-13T21:14:48.081Z,77.33
2023-10-13T21:17:16.444Z,68.23
2023-10-13T21:19:44.511Z,71.40
2023-10-13T21:22:12.714Z,65.43
2023-10-13T21:24:40.625Z,65.20
2023-10-13T21:27:08.948Z,62.00
2023-10-13T21:29:39.292Z,70.07
2023-10-13T21:32:09.700Z,73.33
2023-10-13T21:34:37.944Z,60.80
2023-10-13T21:37:06.454Z,58.33
2023-10-13T21:39:47.607Z,57.83
2023-10-13T21:42:16.848Z,62.97
2023-10-13T21:45:11.938Z,64.27
2023-10-13T21:47:40.740Z,66.90
2023-10-13T21:50:18.150Z,63.87
2023-10-13T21:52:46.903Z,80.23
2023-10-13T21:55:19.579Z,81.43
2023-10-13T21:57:54.655Z,88.97
2023-10-13T22:00:27.601Z,81.13
2023-10-13T22:02:57.828Z,92.60
2023-10-13T22:05:26.082Z,82.67
2023-10-13T22:07:54.485Z,80.07
2023-10-13T22:10:22.609Z,85.47
2023-10-13T22:12:51.052Z,81.87
2023-10-13T22:15:22.364Z,85.00
2023-10-13T22:17:51.622Z,84.60
2023-10-13T22:20:23.328Z,78.87
2023-10-13T22:22:52.359Z,78.80
2023-10-13T22:25:21.779Z,88.17
2023-10-13T22:27:50.657Z,82.90
2023-10-13T22:30:19.777Z,83.17
2023-10-13T22:32:51.414Z,75.20
2023-10-13T22:35:20.139Z,80.20
2023-10-13T22:37:53.816Z,71.87
2023-10-13T22:40:24.005Z,71.10
2023-10-13T22:42:54.012Z,69.50
2023-10-13T22:45:23.925Z,76.33
2023-10-13T22:47:56.236Z,71.93
2023-10-13T22:50:26.444Z,76.80
2023-10-13T22:52:59.976Z,86.90
2023-10-13T22:55:29.164Z,135.97
2023-10-13T22:57:58.349Z,96.13
2023-10-13T23:00:48.542Z,124.97
2023-10-13T23:03:19.229Z,105.70
2023-10-13T23:05:53.060Z,106.03
2023-10-13T23:08:23.999Z,120.50
2023-10-13T23:10:57.129Z,163.77
2023-10-13T23:13:25.895Z,263.23
2023-10-13T23:15:55.173Z,116.13
2023-10-13T23:18:25.238Z,125.30
2023-10-13T23:20:54.044Z,100.70
2023-10-13T23:23:26.435Z,101.03
2023-10-13T23:25:55.191Z,104.07
2023-10-13T23:28:35.831Z,87.00
2023-10-13T23:31:06.418Z,92.00
2023-10-13T23:33:34.647Z,82.13
2023-10-13T23:36:04.498Z,76.63
2023-10-13T23:38:35.576Z,78.57
2023-10-13T23:41:06.352Z,73.97
2023-10-13T23:43:44.485Z,77.10
2023-10-13T23:46:16.079Z,75.13
2023-10-13T23:48:47.116Z,71.70
2023-10-13T23:51:21.794Z,78.00
2023-10-13T23:53:50.624Z,69.80
2023-10-13T23:56:30.538Z,68.97
2023-10-13T23:59:06.692Z,65.93
